createdAt,value
2018-02-06T00:00:21.107Z,97171.88
2018-02-06T00:02:47.405Z,97166.04
2018-02-06T00:05:13.376Z,97170.56
2018-02-06T00:07:39.398Z,97167.86
2018-02-06T00:10:05.492Z,97159.48
2018-02-06T00:12:31.513Z,97167.05
2018-02-06T00:14:57.481Z,97158.30
2018-02-06T00:17:23.525Z,97161.73
2018-02-06T00:19:49.606Z,97150.74
2018-02-06T00:22:15.641Z,97153.26
2018-02-06T00:24:41.664Z,97149.34
2018-02-06T00:27:07.806Z,97152.14
2018-02-06T00:29:33.792Z,97149.88
2018-02-06T00:31:59.816Z,97152.10
2018-02-06T00:34:25.868Z,97150.59
2018-02-06T00:36:51.939Z,97147.38
2018-02-06T00:39:18.097Z,97149.09
2018-02-06T00:41:44.053Z,97137.81
2018-02-06T00:44:10.072Z,97136.09
2018-02-06T00:46:36.196Z,97133.91
2018-02-06T00:49:02.245Z,97135.30
2018-02-06T00:51:28.326Z,97124.08
2018-02-06T00:53:54.356Z,97121.91
2018-02-06T00:56:20.508Z,97117.24
2018-02-06T00:58:46.522Z,97123.30
2018-02-06T01:01:12.913Z,97129.49
2018-02-06T01:03:38.899Z,97129.09
2018-02-06T01:06:04.928Z,97119.77
2018-02-06T01:08:30.940Z,97125.73
2018-02-06T01:10:56.950Z,97120.13
2018-02-06T01:13:22.912Z,97113.21
2018-02-06T01:15:48.933Z,97103.14
2018-02-06T01:18:14.916Z,97103.84
2018-02-06T01:20:40.863Z,97105.92
2018-02-06T01:23:06.953Z,97098.31
2018-02-06T01:25:32.979Z,97093.75
2018-02-06T01:27:59.036Z,97094.75
2018-02-06T01:30:25.049Z,97090.28
2018-02-06T01:32:51.073Z,97092.18
2018-02-06T01:35:17.114Z,97089.97
2018-02-06T01:37:43.149Z,97082.83
2018-02-06T01:40:09.113Z,97083.12
2018-02-06T01:42:35.103Z,97078.00
2018-02-06T01:45:01.218Z,97082.33
2018-02-06T01:47:27.230Z,97070.77
2018-02-06T01:50:04.325Z,97075.13
2018-02-06T01:52:30.372Z,97068.30
2018-02-06T01:54:56.412Z,97067.84
2018-02-06T01:57:22.435Z,97067.84
2018-02-06T01:59:48.393Z,97059.63
2018-02-06T02:02:14.416Z,97051.84
2018-02-06T02:04:40.500Z,97055.18
2018-02-06T02:07:06.489Z,97063.95
2018-02-06T02:09:32.543Z,97060.48
2018-02-06T02:11:58.553Z,97062.52
2018-02-06T02:14:24.593Z,97058.16
2018-02-06T02:16:50.585Z,97056.64
2018-02-06T02:19:16.636Z,97050.19
2018-02-06T02:21:42.649Z,97044.39
2018-02-06T02:24:08.673Z,97040.84
2018-02-06T02:26:34.709Z,97038.95
2018-02-06T02:29:00.739Z,97038.64
2018-02-06T02:31:26.780Z,97033.48
2018-02-06T02:33:52.816Z,97033.60
2018-02-06T02:36:18.843Z,97026.09
2018-02-06T02:38:44.900Z,97023.89
2018-02-06T02:41:10.924Z,97024.46
2018-02-06T04:40:24.033Z,96912.16
2018-02-06T04:42:50.061Z,96900.20
2018-02-06T04:45:16.097Z,96900.81
2018-02-06T04:47:42.148Z,96901.25
2018-02-06T04:50:08.153Z,96901.43
2018-02-06T04:52:34.180Z,96893.52
2018-02-06T04:55:00.280Z,96894.77
2018-02-06T04:57:26.305Z,96886.31
2018-02-06T04:59:52.380Z,96881.13
2018-02-06T05:02:18.432Z,96873.58
2018-02-06T05:04:44.450Z,96873.89
2018-02-06T05:07:10.473Z,96869.88
2018-02-06T05:09:36.485Z,96867.83
2018-02-06T05:12:02.500Z,96853.84
2018-02-06T05:14:28.496Z,96850.09
2018-02-06T05:16:54.515Z,96851.47
2018-02-06T05:19:20.594Z,96847.36
2018-02-06T05:21:46.606Z,96848.02
2018-02-06T05:24:12.644Z,96843.59
2018-02-06T05:26:38.681Z,96832.00
2018-02-06T05:29:04.697Z,96826.69
2018-02-06T05:31:30.739Z,96821.63
2018-02-06T05:33:56.788Z,96819.86
2018-02-06T05:36:22.798Z,96827.09
2018-02-06T05:38:48.944Z,96817.56
2018-02-06T05:41:14.972Z,96818.13
2018-02-06T05:43:40.979Z,96816.56
2018-02-06T05:46:07.070Z,96819.36
2018-02-06T05:48:33.134Z,96817.23
2018-02-06T05:50:59.120Z,96828.10
2018-02-06T05:53:25.124Z,96821.27
2018-02-06T05:55:51.168Z,96824.95
2018-02-06T05:58:17.353Z,96815.97
2018-02-06T06:00:43.441Z,96822.41
2018-02-06T06:03:09.441Z,96823.05
2018-02-06T06:05:35.490Z,96821.87
2018-02-06T06:08:01.464Z,96824.66
2018-02-06T06:10:27.465Z,96827.27
2018-02-06T06:12:53.496Z,96824.88
2018-02-06T06:15:19.517Z,96822.16
2018-02-06T06:17:45.604Z,96832.13
2018-02-06T06:20:11.629Z,96814.16
2018-02-06T06:22:37.794Z,96820.39
2018-02-06T06:25:03.995Z,96803.91
2018-02-06T06:27:30.030Z,96818.30
2018-02-06T06:29:56.129Z,96812.89
2018-02-06T06:32:22.177Z,96817.05
2018-02-06T06:34:48.220Z,96824.48
2018-02-06T06:37:14.376Z,96814.78
2018-02-06T06:39:40.464Z,96818.65
2018-02-06T06:42:06.493Z,96823.52
2018-02-06T06:44:32.525Z,96824.44
2018-02-06T06:46:58.681Z,96824.50
2018-02-06T06:49:24.703Z,96824.02
2018-02-06T06:51:50.744Z,96825.98
2018-02-06T06:54:16.855Z,96821.44
2018-02-06T06:56:42.833Z,96827.98
2018-02-06T06:59:08.819Z,96823.63
2018-02-06T07:01:34.912Z,96820.70
2018-02-06T07:04:00.965Z,96827.83
2018-02-06T07:06:27.065Z,96821.27
2018-02-06T07:08:53.015Z,96832.18
2018-02-06T07:11:19.032Z,96819.89
2018-02-06T07:13:45.030Z,96817.41
2018-02-06T07:16:11.087Z,96815.72
2018-02-06T07:18:37.226Z,96815.23
2018-02-06T07:21:03.285Z,96811.03
2018-02-06T07:23:29.281Z,96809.20
2018-02-06T07:25:55.288Z,96804.06
2018-02-06T07:28:21.322Z,96803.78
2018-02-06T07:30:47.353Z,96797.12
2018-02-06T07:33:13.677Z,96795.95
2018-02-06T07:35:39.686Z,96803.30
2018-02-06T07:38:05.744Z,96796.46
2018-02-06T07:40:31.752Z,96804.14
2018-02-06T07:42:57.733Z,96797.41
2018-02-06T07:45:23.823Z,96803.73
2018-02-06T07:47:49.874Z,96793.09
2018-02-06T07:50:15.835Z,96794.84
2018-02-06T07:52:41.853Z,96790.66
2018-02-06T07:55:07.880Z,96785.22
2018-02-06T07:57:33.885Z,96786.56
2018-02-06T07:59:59.941Z,96783.66
2018-02-06T08:02:25.883Z,96782.06
2018-02-06T08:04:51.900Z,96778.25
2018-02-06T08:07:17.942Z,96778.70
2018-02-06T08:09:43.937Z,96774.99
2018-02-06T08:12:09.920Z,96773.36
2018-02-06T08:14:35.952Z,96769.61
2018-02-06T08:17:01.992Z,96768.52
2018-02-06T08:19:28.040Z,96772.83
2018-02-06T08:21:54.125Z,96767.86
2018-02-06T08:24:20.193Z,96760.50
2018-02-06T08:26:46.217Z,96747.10
2018-02-06T08:29:12.228Z,96738.73
2018-02-06T08:31:38.248Z,96729.50
2018-02-06T08:34:04.275Z,96729.38
2018-02-06T08:36:30.353Z,96726.98
2018-02-06T08:38:56.308Z,96714.58
2018-02-06T08:41:22.337Z,96728.00
2018-02-06T08:43:48.845Z,96723.99
2018-02-06T08:46:14.829Z,96724.11
2018-02-06T08:48:40.897Z,96719.09
2018-02-06T08:51:06.926Z,96727.48
2018-02-06T08:53:32.957Z,96719.05
2018-02-06T08:55:58.960Z,96713.41
2018-02-06T08:58:24.963Z,96702.45
2018-02-06T09:00:51.242Z,96710.63
2018-02-06T09:03:17.292Z,96719.28
2018-02-06T09:05:43.296Z,96732.45
2018-02-06T09:08:09.324Z,96738.34
2018-02-06T09:10:35.329Z,96738.02
2018-02-06T09:13:01.371Z,96736.50
2018-02-06T09:15:27.394Z,96735.32
2018-02-06T09:17:53.441Z,96740.38
2018-02-06T09:20:19.457Z,96749.47
2018-02-06T09:22:45.488Z,96749.95
2018-02-06T09:25:11.574Z,96753.11
2018-02-06T09:27:37.576Z,96759.52
2018-02-06T09:30:03.697Z,96761.39
2018-02-06T09:32:29.720Z,96763.77
2018-02-06T09:34:55.762Z,96754.51
2018-02-06T09:37:21.793Z,96749.13
2018-02-06T09:39:47.793Z,96743.64
2018-02-06T09:42:13.853Z,96733.97
2018-02-06T09:44:39.921Z,96730.87
2018-02-06T09:47:05.944Z,96726.98
2018-02-06T09:49:31.949Z,96732.29
2018-02-06T09:51:58.086Z,96737.66
2018-02-06T09:54:24.440Z,96723.99
2018-02-06T09:56:50.493Z,96716.52
2018-02-06T09:59:16.655Z,96713.55
2018-02-06T10:01:42.622Z,96709.47
2018-02-06T10:04:08.631Z,96701.98
2018-02-06T10:06:34.647Z,96697.31
2018-02-06T10:09:00.721Z,96694.65
2018-02-06T10:11:26.764Z,96690.91
2018-02-06T10:13:52.780Z,96691.42
2018-02-06T10:16:18.761Z,96696.36
2018-02-06T10:18:44.769Z,96686.73
2018-02-06T10:21:10.801Z,96677.28
2018-02-06T10:23:36.868Z,96680.00
2018-02-06T10:26:02.854Z,96671.11
2018-02-06T10:28:29.292Z,96661.61
2018-02-06T10:30:55.308Z,96651.73
2018-02-06T10:33:21.311Z,96652.97
2018-02-06T10:35:54.427Z,96645.91
2018-02-06T10:38:20.443Z,96646.33
2018-02-06T10:40:46.444Z,96644.62
2018-02-06T10:43:12.524Z,96640.22
2018-02-06T10:45:38.934Z,96647.73
2018-02-06T10:48:04.956Z,96648.80
2018-02-06T10:50:30.946Z,96649.81
2018-02-06T10:52:57.022Z,96646.43
2018-02-06T10:55:23.036Z,96647.35
2018-02-06T10:57:49.069Z,96637.30
2018-02-06T11:00:15.078Z,96629.84
2018-02-06T11:02:41.427Z,96633.53
2018-02-06T11:05:07.431Z,96628.98
2018-02-06T11:07:33.439Z,96620.48
2018-02-06T11:09:59.520Z,96617.34
2018-02-06T11:12:25.552Z,96618.63
2018-02-06T11:14:51.953Z,96626.98
2018-02-06T11:17:17.999Z,96616.00
2018-02-06T11:19:44.087Z,96620.43
2018-02-06T11:22:10.124Z,96611.59
2018-02-06T11:24:36.137Z,96602.23
2018-02-06T11:27:02.590Z,96610.91
2018-02-06T11:29:28.599Z,96611.08
2018-02-06T11:31:54.700Z,96609.83
2018-02-06T11:34:20.733Z,96614.94
2018-02-06T11:36:46.804Z,96614.30
2018-02-06T11:39:13.215Z,96610.21
2018-02-06T11:41:39.228Z,96611.64
2018-02-06T11:44:05.224Z,96601.05
2018-02-06T11:46:31.340Z,96598.58
2018-02-06T11:48:57.286Z,96589.92
2018-02-06T11:51:23.633Z,96585.80
2018-02-06T11:53:49.612Z,96593.81
2018-02-06T11:56:15.656Z,96580.70
2018-02-06T11:58:41.685Z,96581.98
2018-02-06T12:01:07.755Z,96576.53
2018-02-06T12:03:34.207Z,96570.45
2018-02-06T12:06:00.180Z,96570.93
2018-02-06T12:08:26.205Z,96577.94
2018-02-06T12:10:52.240Z,96561.52
2018-02-06T12:13:18.280Z,96558.09
2018-02-06T12:15:44.853Z,96559.53
2018-02-06T12:18:10.898Z,96563.83
2018-02-06T12:20:36.912Z,96560.45
2018-02-06T12:23:02.963Z,96550.13
2018-02-06T12:25:28.953Z,96541.33
2018-02-06T12:27:55.309Z,96530.69
2018-02-06T12:30:21.350Z,96532.93
2018-02-06T12:32:47.360Z,96528.25
2018-02-06T12:35:14.263Z,96529.92
2018-02-06T12:37:40.296Z,96528.09
2018-02-06T12:40:06.727Z,96533.14
2018-02-06T12:42:32.799Z,96540.48
2018-02-06T12:44:58.805Z,96527.45
2018-02-06T12:47:24.893Z,96516.78
2018-02-06T12:49:50.911Z,96514.70
2018-02-06T12:52:16.980Z,96504.77
2018-02-06T12:54:42.977Z,96501.91
2018-02-06T12:57:09.029Z,96497.59
2018-02-06T12:59:35.086Z,96486.51
2018-02-06T13:02:01.107Z,96495.97
2018-02-06T13:04:27.487Z,96483.60
2018-02-06T13:06:53.511Z,96481.45
2018-02-06T13:09:19.511Z,96478.53
2018-02-06T13:11:45.555Z,96471.77
2018-02-06T13:14:11.553Z,96464.42
2018-02-06T13:16:37.564Z,96467.69
2018-02-06T13:19:03.580Z,96462.56
2018-02-06T13:21:29.970Z,96467.64
2018-02-06T13:23:56.147Z,96461.70
2018-02-06T13:26:22.169Z,96453.92
2018-02-06T13:28:48.150Z,96451.40
2018-02-06T13:31:14.175Z,96444.20
2018-02-06T13:33:40.263Z,96450.55
2018-02-06T13:36:06.264Z,96452.80
2018-02-06T13:38:32.659Z,96451.26
2018-02-06T13:40:58.688Z,96447.75
2018-02-06T13:43:24.663Z,96457.65
2018-02-06T13:45:50.723Z,96458.17
2018-02-06T13:48:16.829Z,96453.26
2018-02-06T13:50:43.246Z,96448.19
2018-02-06T13:53:09.308Z,96445.34
2018-02-06T13:55:35.385Z,96434.05
2018-02-06T13:58:01.468Z,96433.87
2018-02-06T14:00:27.581Z,96438.70
2018-02-06T14:02:53.640Z,96438.17
2018-02-06T14:05:19.668Z,96441.84
2018-02-06T14:07:46.015Z,96433.75
2018-02-06T14:10:12.021Z,96436.31
2018-02-06T14:12:38.001Z,96434.95
2018-02-06T14:15:04.064Z,96432.95
2018-02-06T14:17:30.080Z,96421.19
2018-02-06T14:19:56.133Z,96423.59
2018-02-06T14:22:22.152Z,96418.59
2018-02-06T14:24:48.587Z,96410.50
2018-02-06T14:27:14.616Z,96406.28
2018-02-06T14:29:40.669Z,96408.41
2018-02-06T14:32:06.721Z,96407.80
2018-02-06T14:34:32.753Z,96410.95
2018-02-06T14:36:58.849Z,96410.73
2018-02-06T14:39:24.804Z,96414.65
2018-02-06T14:41:51.273Z,96406.84
2018-02-06T14:44:17.446Z,96405.14
2018-02-06T14:46:43.514Z,96413.19
2018-02-06T14:49:09.634Z,96407.86
2018-02-06T14:51:35.673Z,96409.81
2018-02-06T14:54:01.652Z,96411.63
2018-02-06T14:56:27.642Z,96407.86
2018-02-06T14:58:53.641Z,96410.05
2018-02-06T15:01:19.685Z,96414.58
2018-02-06T15:03:46.108Z,96411.84
2018-02-06T15:06:12.144Z,96401.61
2018-02-06T15:08:38.241Z,96400.81
2018-02-06T15:11:04.298Z,96391.59
2018-02-06T15:13:30.340Z,96393.28
2018-02-06T15:15:56.738Z,96392.12
2018-02-06T15:18:22.752Z,96395.19
2018-02-06T15:20:48.756Z,96386.51
2018-02-06T15:23:14.822Z,96390.41
2018-02-06T15:25:40.882Z,96390.02
2018-02-06T15:28:06.852Z,96393.88
2018-02-06T15:30:32.945Z,96390.41
2018-02-06T15:32:58.984Z,96385.28
2018-02-06T15:35:25.051Z,96381.52
2018-02-06T15:37:51.096Z,96382.16
2018-02-06T15:40:17.513Z,96383.59
2018-02-06T15:42:43.843Z,96392.16
2018-02-06T15:45:10.484Z,96393.94
2018-02-06T15:47:36.508Z,96394.45
2018-02-06T15:50:02.625Z,96396.36
2018-02-06T15:52:28.629Z,96399.27
2018-02-06T15:54:54.693Z,96393.88
2018-02-06T15:57:20.844Z,96390.46
2018-02-06T15:59:49.566Z,96391.76
2018-02-06T16:02:15.725Z,96385.83
2018-02-06T16:04:42.695Z,96394.48
2018-02-06T16:07:08.980Z,96389.34
2018-02-06T16:09:36.545Z,96388.64
2018-02-06T16:14:35.993Z,96392.52
2018-02-06T16:17:02.178Z,96389.50
2018-02-06T16:19:28.398Z,96393.52
2018-02-06T16:21:55.113Z,96392.09
2018-02-06T16:24:21.266Z,96397.20
2018-02-06T16:26:47.403Z,96397.02
2018-02-06T16:29:13.560Z,96400.92
2018-02-06T16:31:39.686Z,96401.05
2018-02-06T16:34:05.782Z,96402.73
2018-02-06T16:36:31.810Z,96404.34
2018-02-06T16:38:58.438Z,96410.30
2018-02-06T16:41:24.481Z,96413.82
2018-02-06T16:43:50.531Z,96408.12
2018-02-06T16:46:16.841Z,96420.23
2018-02-06T16:48:42.922Z,96411.89
2018-02-06T16:51:09.012Z,96420.98
2018-02-06T16:53:35.324Z,96417.77
2018-02-06T16:56:01.846Z,96414.13
2018-02-06T16:58:27.922Z,96412.02
2018-02-06T17:00:54.022Z,96420.63
2018-02-06T17:03:20.109Z,96419.02
2018-02-06T17:05:46.120Z,96416.94
2018-02-06T17:08:12.549Z,96418.77
2018-02-06T17:10:38.628Z,96426.78
2018-02-06T17:13:04.761Z,96431.20
2018-02-06T17:15:30.834Z,96429.80
2018-02-06T17:17:56.886Z,96433.29
2018-02-06T17:20:22.935Z,96432.77
2018-02-06T17:22:49.077Z,96442.11
2018-02-06T17:25:15.550Z,96436.02
2018-02-06T17:27:41.597Z,96433.53
2018-02-06T17:30:07.619Z,96441.70
2018-02-06T17:32:33.653Z,96435.88
2018-02-06T17:34:59.753Z,96439.08
2018-02-06T17:37:25.798Z,96439.50
2018-02-06T17:39:51.813Z,96436.61
2018-02-06T17:42:17.910Z,96436.39
2018-02-06T17:44:43.938Z,96432.63
2018-02-06T17:47:10.377Z,96419.78
2018-02-06T17:49:36.374Z,96423.77
2018-02-06T17:52:02.374Z,96423.77
2018-02-06T17:54:28.996Z,96418.95
2018-02-06T17:56:55.169Z,96410.05
2018-02-06T17:59:21.174Z,96419.35
2018-02-06T18:01:47.279Z,96418.22
2018-02-06T18:04:13.355Z,96414.20
2018-02-06T18:06:39.805Z,96417.44
2018-02-06T18:09:05.897Z,96415.12
2018-02-06T18:11:31.980Z,96404.34
2018-02-06T18:13:58.029Z,96412.77
2018-02-06T18:16:24.111Z,96403.64
2018-02-06T18:18:50.322Z,96398.06
2018-02-06T18:21:16.462Z,96400.79
2018-02-06T18:23:42.913Z,96388.20
2018-02-06T18:26:09.006Z,96394.69
2018-02-06T18:28:35.005Z,96393.63
2018-02-06T18:31:01.223Z,96385.19
2018-02-06T18:33:27.279Z,96378.38
2018-02-06T18:35:53.656Z,96381.26
2018-02-06T18:38:19.835Z,96380.97
2018-02-06T18:40:45.897Z,96383.56
2018-02-06T18:43:11.993Z,96385.32
2018-02-06T18:45:38.092Z,96379.87
2018-02-06T18:48:04.114Z,96381.14
2018-02-06T18:50:30.170Z,96382.33
2018-02-06T18:52:56.313Z,96378.29
2018-02-06T18:55:22.376Z,96375.27
2018-02-06T18:57:48.774Z,96368.11
2018-02-06T19:00:14.820Z,96373.41
2018-02-06T19:02:41.022Z,96377.77
2018-02-06T19:05:07.097Z,96373.86
2018-02-06T19:07:33.236Z,96375.80
2018-02-06T19:09:59.290Z,96378.72
2018-02-06T19:12:25.733Z,96373.59
2018-02-06T19:14:52.112Z,96382.66
2018-02-06T19:17:18.169Z,96380.52
2018-02-06T19:19:44.260Z,96382.59
2018-02-06T19:22:10.384Z,96388.80
2018-02-06T19:24:36.669Z,96404.11
2018-02-06T19:27:02.814Z,96396.31
2018-02-06T19:29:29.317Z,96398.25
2018-02-06T19:31:55.405Z,96395.33
2018-02-06T19:34:21.429Z,96380.92
2018-02-06T19:36:49.312Z,96382.54
2018-02-06T19:39:15.373Z,96382.26
2018-02-06T19:41:42.425Z,96383.13
2018-02-06T19:44:08.562Z,96385.52
2018-02-06T19:46:34.674Z,96386.38
2018-02-06T19:49:00.743Z,96375.00
2018-02-06T19:51:27.879Z,96376.16
2018-02-06T19:53:53.970Z,96379.95
2018-02-06T19:56:19.993Z,96379.16
2018-02-06T19:58:47.433Z,96371.50
2018-02-06T20:01:14.527Z,96371.27
2018-02-06T20:03:41.098Z,96370.38
2018-02-06T20:06:07.136Z,96366.29
2018-02-06T20:08:33.198Z,96375.23
2018-02-06T20:10:59.321Z,96372.91
2018-02-06T20:13:26.444Z,96377.56
2018-02-06T20:15:52.884Z,96369.98
2018-02-06T20:18:18.925Z,96366.97
2018-02-06T20:20:45.098Z,96364.90
2018-02-06T20:23:12.165Z,96361.25
2018-02-06T20:25:38.293Z,96362.67
2018-02-06T20:28:04.399Z,96363.90
2018-02-06T20:30:30.461Z,96367.15
2018-02-06T20:32:56.530Z,96375.13
2018-02-06T20:35:22.618Z,96370.22
2018-02-06T20:37:48.702Z,96373.34
2018-02-06T20:40:14.824Z,96369.83
2018-02-06T20:42:40.856Z,96369.08
2018-02-06T20:45:07.341Z,96365.74
2018-02-06T20:47:33.390Z,96362.28
2018-02-06T20:49:59.346Z,96356.27
2018-02-06T20:52:26.433Z,96361.01
2018-02-06T20:54:52.475Z,96352.60
2018-02-06T20:57:18.548Z,96351.80
2018-02-06T20:59:44.667Z,96360.77
2018-02-06T21:02:10.707Z,96359.69
2018-02-06T21:04:36.721Z,96360.78
2018-02-06T21:07:02.764Z,96365.05
2018-02-06T21:09:29.139Z,96356.48
2018-02-06T21:11:55.184Z,96361.17
2018-02-06T21:14:21.643Z,96355.88
2018-02-06T21:16:47.657Z,96359.19
2018-02-06T21:19:13.695Z,96357.53
2018-02-06T21:21:39.769Z,96358.14
2018-02-06T21:24:05.853Z,96354.75
2018-02-06T21:26:31.890Z,96368.39
2018-02-06T21:28:57.975Z,96360.22
2018-02-06T21:31:24.407Z,96362.80
2018-02-06T21:33:50.333Z,96359.12
2018-02-06T21:36:16.396Z,96355.77
2018-02-06T21:38:42.492Z,96348.72
2018-02-06T21:41:08.524Z,96345.94
2018-02-06T21:43:34.509Z,96352.30
2018-02-06T21:46:00.566Z,96353.89
2018-02-06T21:48:26.960Z,96344.67
2018-02-06T21:50:53.016Z,96344.70
2018-02-06T21:53:19.050Z,96348.19
2018-02-06T21:55:45.106Z,96352.73
2018-02-06T21:58:11.148Z,96349.89
2018-02-06T22:00:37.271Z,96347.09
2018-02-06T22:03:03.264Z,96344.26
2018-02-06T22:05:29.606Z,96348.98
2018-02-06T22:07:55.680Z,96352.36
2018-02-06T22:10:21.709Z,96353.28
2018-02-06T22:12:47.847Z,96351.36
2018-02-06T22:15:13.877Z,96352.77
2018-02-06T22:17:39.954Z,96360.56
2018-02-06T22:20:05.992Z,96359.22
2018-02-06T22:22:32.443Z,96360.09
2018-02-06T22:24:58.508Z,96361.98
2018-02-06T22:27:24.601Z,96358.20
2018-02-06T22:29:50.622Z,96361.56
2018-02-06T22:32:16.622Z,96360.18
2018-02-06T22:34:42.641Z,96357.98
2018-02-06T22:37:08.686Z,96357.11
2018-02-06T22:39:35.138Z,96350.13
2018-02-06T22:42:01.154Z,96354.44
2018-02-06T22:44:27.196Z,96357.71
2018-02-06T22:46:53.362Z,96360.33
2018-02-06T22:49:19.411Z,96353.87
2018-02-06T22:51:45.434Z,96354.23
2018-02-06T22:54:11.445Z,96354.98
2018-02-06T22:56:37.485Z,96355.91
2018-02-06T22:59:03.499Z,96351.28
2018-02-06T23:01:29.522Z,96352.70
2018-02-06T23:03:55.562Z,96353.02
2018-02-06T23:06:21.645Z,96351.70
2018-02-06T23:08:48.044Z,96355.42
2018-02-06T23:11:14.055Z,96354.79
2018-02-06T23:13:40.055Z,96355.57
2018-02-06T23:16:06.083Z,96360.70
2018-02-06T23:18:32.093Z,96356.44
2018-02-06T23:20:58.173Z,96364.13
2018-02-06T23:23:24.197Z,96368.09
2018-02-06T23:25:50.222Z,96366.47
2018-02-06T23:28:16.290Z,96361.56
2018-02-06T23:30:42.601Z,96363.28
2018-02-06T23:33:08.646Z,96367.70
2018-02-06T23:35:34.677Z,96371.45
2018-02-06T23:38:00.729Z,96370.92
2018-02-06T23:40:26.777Z,96369.90
2018-02-06T23:42:52.845Z,96369.30
2018-02-06T23:45:18.873Z,96372.28
2018-02-06T23:47:44.899Z,96362.84
2018-02-06T23:50:10.923Z,96361.81
2018-02-06T23:52:36.952Z,96367.06
2018-02-06T23:55:03.336Z,96359.70
2018-02-06T23:57:29.769Z,96367.23
2018-02-06T23:59:55.792Z,96366.34
